To NAV CANADA Home Page Login to a new session Search on AWWS site Feedback and Comments Disclaimer Vers la page française équivalente Tips FAQ What's new on the site To the Forecasts and Observations / NOTAM section To "File a Flight Plan" website Publications and other links Update of the User's profile FIC Telephone Numbers My Weather Data Folder Route Weather Data Regional Weather Data Local Weather Data To the Forecasts and Observations / NOTAM section
Request Generated 04/25/2014 at 06:01:21 UTC . Weather information available at that time is displayed.

METAR/TAF

MEDICINE HAT/AB    

METAR CYXH 250500Z AUTO 06010G15KT 9SM OVC080 09/00 A2969 RMK SLP063
DENSITY ALT 2400FT=
METAR CYXH 250400Z AUTO 07006KT 9SM BKN075 BKN085 BKN170 10/M02 A2968
RMK SLP060 DENSITY ALT 2500FT=
METAR CYXH 250300Z 07003KT 30SM SCT130 OVC260 12/M06 A2967 RMK AC4CI4
LAST STFD OBS/NEXT 251300Z SLP058 DENSITY ALT 2700FT=

TAF CYXH 250538Z 2506/2518 06012KT P6SM BKN080
FM250900 12005KT P6SM SCT080
BECMG 2513/2515 23010KT
BECMG 2517/2518 05005KT
RMK FCST BASED ON AUTO OBS. NXT FCST BY 251200Z=
Your time UTC time
Weather data provided by Environment Canada and NAV CANADA